sensor_id;sensor_type;location;lat;lon;timestamp;temperature;humidity
55064;DHT22;40963;52.168;21.296;2022-08-04T00:03:56;17.20;99.90
55064;DHT22;40963;52.168;21.296;2022-08-04T00:09:15;17.20;99.90
55064;DHT22;40963;52.168;21.296;2022-08-04T00:11:45;17.20;99.90
55064;DHT22;40963;52.168;21.296;2022-08-04T00:14:15;17.20;99.90
55064;DHT22;40963;52.168;21.296;2022-08-04T00:16:42;17.10;99.90
55064;DHT22;40963;52.168;21.296;2022-08-04T00:19:31;17.10;99.90
55064;DHT22;40963;52.168;21.296;2022-08-04T00:22:02;17.00;99.90
55064;DHT22;40963;52.168;21.296;2022-08-04T00:24:31;17.00;99.90
55064;DHT22;40963;52.168;21.296;2022-08-04T00:26:59;17.00;99.90
55064;DHT22;40963;52.168;21.296;2022-08-04T00:29:26;16.90;99.90
55064;DHT22;40963;52.168;21.296;2022-08-04T00:31:52;16.90;99.90
55064;DHT22;40963;52.168;21.296;2022-08-04T00:34:19;16.90;99.90
55064;DHT22;40963;52.168;21.296;2022-08-04T00:36:45;16.90;99.90
55064;DHT22;40963;52.168;21.296;2022-08-04T00:39:13;16.80;99.90
55064;DHT22;40963;52.168;21.296;2022-08-04T00:47:14;16.80;99.90
55064;DHT22;40963;52.168;21.296;2022-08-04T00:49:47;16.70;99.90
55064;DHT22;40963;52.168;21.296;2022-08-04T00:55:09;16.70;99.90
55064;DHT22;40963;52.168;21.296;2022-08-04T01:00:18;16.70;99.90
55064;DHT22;40963;52.168;21.296;2022-08-04T01:13:55;16.60;99.90
55064;DHT22;40963;52.168;21.296;2022-08-04T01:16:26;16.50;99.90
55064;DHT22;40963;52.168;21.296;2022-08-04T01:18:58;16.50;99.90
55064;DHT22;40963;52.168;21.296;2022-08-04T01:24:18;16.50;99.90
55064;DHT22;40963;52.168;21.296;2022-08-04T01:29:52;16.40;99.90
55064;DHT22;40963;52.168;21.296;2022-08-04T01:32:20;16.40;99.90
55064;DHT22;40963;52.168;21.296;2022-08-04T01:34:58;16.40;99.90
55064;DHT22;40963;52.168;21.296;2022-08-04T01:40:04;16.30;99.90
55064;DHT22;40963;52.168;21.296;2022-08-04T01:42:31;16.30;99.90
55064;DHT22;40963;52.168;21.296;2022-08-04T01:45:00;16.30;99.90
55064;DHT22;40963;52.168;21.296;2022-08-04T01:47:29;16.30;99.90
55064;DHT22;40963;52.168;21.296;2022-08-04T01:50:01;16.20;99.90
55064;DHT22;40963;52.168;21.296;2022-08-04T01:52:30;16.20;99.90
55064;DHT22;40963;52.168;21.296;2022-08-04T01:54:57;16.20;99.90
55064;DHT22;40963;52.168;21.296;2022-08-04T01:57:24;16.20;99.90
55064;DHT22;40963;52.168;21.296;2022-08-04T01:59:52;16.20;99.90
55064;DHT22;40963;52.168;21.296;2022-08-04T02:02:21;16.10;99.90
55064;DHT22;40963;52.168;21.296;2022-08-04T02:04:48;16.10;99.90
55064;DHT22;40963;52.168;21.296;2022-08-04T02:07:42;16.10;99.90
55064;DHT22;40963;52.168;21.296;2022-08-04T02:13:08;16.10;99.90
55064;DHT22;40963;52.168;21.296;2022-08-04T02:18:43;16.00;99.90
55064;DHT22;40963;52.168;21.296;2022-08-04T02:21:15;16.00;99.90
55064;DHT22;40963;52.168;21.296;2022-08-04T02:23:48;16.00;99.90
55064;DHT22;40963;52.168;21.296;2022-08-04T02:26:19;16.00;99.90
55064;DHT22;40963;52.168;21.296;2022-08-04T02:31:26;15.90;99.90
55064;DHT22;40963;52.168;21.296;2022-08-04T02:34:22;15.90;99.90
55064;DHT22;40963;52.168;21.296;2022-08-04T02:36:51;15.90;99.90
55064;DHT22;40963;52.168;21.296;2022-08-04T02:39:21;15.80;99.90
55064;DHT22;40963;52.168;21.296;2022-08-04T02:41:49;15.90;99.90
55064;DHT22;40963;52.168;21.296;2022-08-04T02:44:21;15.80;99.90
55064;DHT22;40963;52.168;21.296;2022-08-04T02:46:50;15.80;99.90
55064;DHT22;40963;52.168;21.296;2022-08-04T02:49:18;15.80;99.90
55064;DHT22;40963;52.168;21.296;2022-08-04T02:51:51;15.80;99.90
55064;DHT22;40963;52.168;21.296;2022-08-04T02:54:22;15.70;99.90
55064;DHT22;40963;52.168;21.296;2022-08-04T02:56:51;15.70;99.90
55064;DHT22;40963;52.168;21.296;2022-08-04T02:59:19;15.70;99.90
55064;DHT22;40963;52.168;21.296;2022-08-04T03:01:47;15.70;99.90
55064;DHT22;40963;52.168;21.296;2022-08-04T03:12:38;15.60;99.90
55064;DHT22;40963;52.168;21.296;2022-08-04T03:15:17;15.60;99.90
55064;DHT22;40963;52.168;21.296;2022-08-04T03:18:19;15.60;99.90
55064;DHT22;40963;52.168;21.296;2022-08-04T03:26:35;15.60;99.90
55064;DHT22;40963;52.168;21.296;2022-08-04T03:31:57;15.60;99.90
55064;DHT22;40963;52.168;21.296;2022-08-04T04:05:23;15.60;99.90
55064;DHT22;40963;52.168;21.296;2022-08-04T04:07:58;15.70;99.90
55064;DHT22;40963;52.168;21.296;2022-08-04T04:10:33;15.70;99.90
55064;DHT22;40963;52.168;21.296;2022-08-04T04:13:08;15.80;99.90
55064;DHT22;40963;52.168;21.296;2022-08-04T04:15:50;15.80;99.90
55064;DHT22;40963;52.168;21.296;2022-08-04T04:19:43;15.90;99.90
55064;DHT22;40963;52.168;21.296;2022-08-04T04:21:57;16.00;99.90
55064;DHT22;40963;52.168;21.296;2022-08-04T04:24:29;16.10;99.90
55064;DHT22;40963;52.168;21.296;2022-08-04T04:27:36;16.10;99.90
55064;DHT22;40963;52.168;21.296;2022-08-04T04:30:30;16.20;99.90
55064;DHT22;40963;52.168;21.296;2022-08-04T04:34:18;16.30;99.90
55064;DHT22;40963;52.168;21.296;2022-08-04T04:36:24;16.40;99.90
55064;DHT22;40963;52.168;21.296;2022-08-04T04:41:50;16.50;99.90
55064;DHT22;40963;52.168;21.296;2022-08-04T04:44:51;16.60;99.90
55064;DHT22;40963;52.168;21.296;2022-08-04T04:51:09;16.80;99.90
55064;DHT22;40963;52.168;21.296;2022-08-04T04:53:23;16.90;99.90
55064;DHT22;40963;52.168;21.296;2022-08-04T04:56:04;17.00;99.90
55064;DHT22;40963;52.168;21.296;2022-08-04T04:58:32;17.10;99.90
55064;DHT22;40963;52.168;21.296;2022-08-04T05:04:20;17.30;99.90
55064;DHT22;40963;52.168;21.296;2022-08-04T05:07:05;17.40;99.90
55064;DHT22;40963;52.168;21.296;2022-08-04T05:12:59;17.60;99.90
55064;DHT22;40963;52.168;21.296;2022-08-04T05:15:30;17.70;99.90
55064;DHT22;40963;52.168;21.296;2022-08-04T05:18:00;17.80;99.90
55064;DHT22;40963;52.168;21.296;2022-08-04T05:20:33;17.80;99.90
55064;DHT22;40963;52.168;21.296;2022-08-04T05:23:18;18.00;99.90
55064;DHT22;40963;52.168;21.296;2022-08-04T05:25:52;18.10;99.90
55064;DHT22;40963;52.168;21.296;2022-08-04T05:28:24;18.20;99.90
55064;DHT22;40963;52.168;21.296;2022-08-04T05:30:58;18.30;99.90
55064;DHT22;40963;52.168;21.296;2022-08-04T05:33:40;18.40;99.90
55064;DHT22;40963;52.168;21.296;2022-08-04T05:36:12;18.50;99.90
55064;DHT22;40963;52.168;21.296;2022-08-04T05:38:41;18.60;99.90
55064;DHT22;40963;52.168;21.296;2022-08-04T05:41:09;18.80;99.90
55064;DHT22;40963;52.168;21.296;2022-08-04T05:43:41;19.00;99.90
55064;DHT22;40963;52.168;21.296;2022-08-04T05:46:08;19.00;99.90
55064;DHT22;40963;52.168;21.296;2022-08-04T05:48:36;19.10;99.90
55064;DHT22;40963;52.168;21.296;2022-08-04T05:51:03;19.20;99.90
55064;DHT22;40963;52.168;21.296;2022-08-04T05:53:30;19.40;99.90
55064;DHT22;40963;52.168;21.296;2022-08-04T05:55:56;19.50;99.90
55064;DHT22;40963;52.168;21.296;2022-08-04T05:58:23;19.70;99.90
55064;DHT22;40963;52.168;21.296;2022-08-04T06:00:50;19.80;99.90
55064;DHT22;40963;52.168;21.296;2022-08-04T06:03:18;19.90;99.90
55064;DHT22;40963;52.168;21.296;2022-08-04T06:05:44;20.10;99.90
55064;DHT22;40963;52.168;21.296;2022-08-04T06:08:11;20.20;99.90
55064;DHT22;40963;52.168;21.296;2022-08-04T06:10:37;20.30;99.90
55064;DHT22;40963;52.168;21.296;2022-08-04T06:13:10;20.50;99.90
55064;DHT22;40963;52.168;21.296;2022-08-04T06:15:39;20.60;99.60
55064;DHT22;40963;52.168;21.296;2022-08-04T06:18:06;20.70;99.10
55064;DHT22;40963;52.168;21.296;2022-08-04T06:20:35;20.90;98.70
55064;DHT22;40963;52.168;21.296;2022-08-04T06:23:06;21.00;98.30
55064;DHT22;40963;52.168;21.296;2022-08-04T06:25:37;21.20;97.80
55064;DHT22;40963;52.168;21.296;2022-08-04T06:28:07;21.30;97.40
55064;DHT22;40963;52.168;21.296;2022-08-04T06:30:35;21.40;96.90
55064;DHT22;40963;52.168;21.296;2022-08-04T06:33:01;21.60;96.40
55064;DHT22;40963;52.168;21.296;2022-08-04T06:35:38;21.70;95.80
55064;DHT22;40963;52.168;21.296;2022-08-04T06:38:05;21.90;95.30
55064;DHT22;40963;52.168;21.296;2022-08-04T06:40:33;22.00;94.90
55064;DHT22;40963;52.168;21.296;2022-08-04T06:43:08;22.10;94.40
55064;DHT22;40963;52.168;21.296;2022-08-04T06:45:37;22.30;94.00
55064;DHT22;40963;52.168;21.296;2022-08-04T06:48:05;22.40;93.70
55064;DHT22;40963;52.168;21.296;2022-08-04T06:50:36;22.50;93.20
55064;DHT22;40963;52.168;21.296;2022-08-04T06:53:03;22.60;92.80
55064;DHT22;40963;52.168;21.296;2022-08-04T06:55:30;22.80;92.40
55064;DHT22;40963;52.168;21.296;2022-08-04T06:57:56;22.90;92.00
55064;DHT22;40963;52.168;21.296;2022-08-04T07:00:23;23.00;91.60
55064;DHT22;40963;52.168;21.296;2022-08-04T07:02:51;23.10;91.10
55064;DHT22;40963;52.168;21.296;2022-08-04T07:05:19;23.30;90.80
55064;DHT22;40963;52.168;21.296;2022-08-04T07:07:45;23.30;89.60
55064;DHT22;40963;52.168;21.296;2022-08-04T07:10:11;23.40;88.10
55064;DHT22;40963;52.168;21.296;2022-08-04T07:12:38;23.50;87.00
55064;DHT22;40963;52.168;21.296;2022-08-04T07:15:06;23.60;84.90
55064;DHT22;40963;52.168;21.296;2022-08-04T07:17:34;23.70;82.30
55064;DHT22;40963;52.168;21.296;2022-08-04T07:20:01;23.80;79.80
55064;DHT22;40963;52.168;21.296;2022-08-04T07:22:27;23.90;77.80
55064;DHT22;40963;52.168;21.296;2022-08-04T07:24:56;24.10;76.30
55064;DHT22;40963;52.168;21.296;2022-08-04T07:27:22;24.20;74.60
55064;DHT22;40963;52.168;21.296;2022-08-04T07:29:48;24.40;73.60
55064;DHT22;40963;52.168;21.296;2022-08-04T07:32:15;24.60;73.30
55064;DHT22;40963;52.168;21.296;2022-08-04T07:34:43;24.80;72.90
55064;DHT22;40963;52.168;21.296;2022-08-04T07:37:09;24.80;72.40
55064;DHT22;40963;52.168;21.296;2022-08-04T07:39:35;25.00;71.60
55064;DHT22;40963;52.168;21.296;2022-08-04T07:42:03;25.10;71.20
55064;DHT22;40963;52.168;21.296;2022-08-04T07:44:30;25.20;70.70
55064;DHT22;40963;52.168;21.296;2022-08-04T07:46:56;25.30;70.20
55064;DHT22;40963;52.168;21.296;2022-08-04T07:49:22;25.40;69.90
55064;DHT22;40963;52.168;21.296;2022-08-04T07:51:49;25.50;70.00
55064;DHT22;40963;52.168;21.296;2022-08-04T07:54:16;25.70;69.50
55064;DHT22;40963;52.168;21.296;2022-08-04T07:56:42;25.70;69.00
55064;DHT22;40963;52.168;21.296;2022-08-04T07:59:08;25.90;68.70
55064;DHT22;40963;52.168;21.296;2022-08-04T08:01:35;26.00;68.30
55064;DHT22;40963;52.168;21.296;2022-08-04T08:04:02;26.10;67.70
55064;DHT22;40963;52.168;21.296;2022-08-04T08:06:29;26.20;67.00
55064;DHT22;40963;52.168;21.296;2022-08-04T08:08:55;26.20;66.10
55064;DHT22;40963;52.168;21.296;2022-08-04T08:11:21;26.30;65.20
55064;DHT22;40963;52.168;21.296;2022-08-04T08:13:48;26.40;64.60
55064;DHT22;40963;52.168;21.296;2022-08-04T08:16:14;26.40;64.40
55064;DHT22;40963;52.168;21.296;2022-08-04T08:18:40;26.50;63.60
55064;DHT22;40963;52.168;21.296;2022-08-04T08:21:06;26.60;62.90
55064;DHT22;40963;52.168;21.296;2022-08-04T08:23:34;26.70;62.40
55064;DHT22;40963;52.168;21.296;2022-08-04T08:26:00;26.80;62.00
55064;DHT22;40963;52.168;21.296;2022-08-04T08:28:26;26.90;61.40
55064;DHT22;40963;52.168;21.296;2022-08-04T08:30:52;26.90;60.70
55064;DHT22;40963;52.168;21.296;2022-08-04T08:33:19;27.00;60.50
55064;DHT22;40963;52.168;21.296;2022-08-04T08:36:03;27.00;59.80
55064;DHT22;40963;52.168;21.296;2022-08-04T08:38:39;27.10;59.70
55064;DHT22;40963;52.168;21.296;2022-08-04T08:41:15;27.10;59.50
55064;DHT22;40963;52.168;21.296;2022-08-04T09:00:25;27.70;57.40
55064;DHT22;40963;52.168;21.296;2022-08-04T09:06:04;27.80;56.70
55064;DHT22;40963;52.168;21.296;2022-08-04T09:11:15;27.80;56.50
55064;DHT22;40963;52.168;21.296;2022-08-04T09:13:44;27.80;57.20
55064;DHT22;40963;52.168;21.296;2022-08-04T09:16:36;27.80;57.00
55064;DHT22;40963;52.168;21.296;2022-08-04T09:19:20;27.90;57.00
55064;DHT22;40963;52.168;21.296;2022-08-04T09:21:56;27.80;56.20
55064;DHT22;40963;52.168;21.296;2022-08-04T09:35:15;28.10;55.40
55064;DHT22;40963;52.168;21.296;2022-08-04T09:40:25;28.20;55.30
55064;DHT22;40963;52.168;21.296;2022-08-04T09:49:04;28.50;55.00
55064;DHT22;40963;52.168;21.296;2022-08-04T09:54:57;28.60;54.00
55064;DHT22;40963;52.168;21.296;2022-08-04T10:00:09;28.60;52.50
55064;DHT22;40963;52.168;21.296;2022-08-04T10:02:40;28.60;52.30
55064;DHT22;40963;52.168;21.296;2022-08-04T10:05:20;28.60;52.10
55064;DHT22;40963;52.168;21.296;2022-08-04T10:13:59;28.60;52.40
55064;DHT22;40963;52.168;21.296;2022-08-04T10:16:39;28.60;52.60
55064;DHT22;40963;52.168;21.296;2022-08-04T10:19:26;28.60;52.00
55064;DHT22;40963;52.168;21.296;2022-08-04T10:22:10;28.50;52.00
55064;DHT22;40963;52.168;21.296;2022-08-04T10:27:46;28.30;52.20
55064;DHT22;40963;52.168;21.296;2022-08-04T10:30:16;28.30;52.70
55064;DHT22;40963;52.168;21.296;2022-08-04T10:35:24;28.20;52.70
55064;DHT22;40963;52.168;21.296;2022-08-04T10:41:11;28.20;52.70
55064;DHT22;40963;52.168;21.296;2022-08-04T10:43:57;28.30;53.10
55064;DHT22;40963;52.168;21.296;2022-08-04T10:46:31;28.30;52.60
55064;DHT22;40963;52.168;21.296;2022-08-04T10:54:40;28.30;52.50
55064;DHT22;40963;52.168;21.296;2022-08-04T10:57:25;28.40;52.20
55064;DHT22;40963;52.168;21.296;2022-08-04T11:00:12;28.50;51.80
55064;DHT22;40963;52.168;21.296;2022-08-04T11:05:20;28.30;51.40
55064;DHT22;40963;52.168;21.296;2022-08-04T11:07:52;28.10;51.40
55064;DHT22;40963;52.168;21.296;2022-08-04T11:10:24;28.00;52.20
55064;DHT22;40963;52.168;21.296;2022-08-04T11:12:56;28.20;53.60
55064;DHT22;40963;52.168;21.296;2022-08-04T11:15:27;28.20;53.40
55064;DHT22;40963;52.168;21.296;2022-08-04T11:18:22;28.30;52.50
55064;DHT22;40963;52.168;21.296;2022-08-04T11:21:01;28.40;51.20
55064;DHT22;40963;52.168;21.296;2022-08-04T11:23:33;28.50;50.80
55064;DHT22;40963;52.168;21.296;2022-08-04T11:26:12;28.70;50.40
55064;DHT22;40963;52.168;21.296;2022-08-04T11:28:57;28.80;50.10
55064;DHT22;40963;52.168;21.296;2022-08-04T11:31:35;28.90;49.90
55064;DHT22;40963;52.168;21.296;2022-08-04T11:34:21;29.00;49.70
55064;DHT22;40963;52.168;21.296;2022-08-04T11:37:08;29.00;49.30
55064;DHT22;40963;52.168;21.296;2022-08-04T11:39:42;28.90;48.70
55064;DHT22;40963;52.168;21.296;2022-08-04T11:42:19;28.90;49.00
55064;DHT22;40963;52.168;21.296;2022-08-04T11:45:00;28.70;48.60
55064;DHT22;40963;52.168;21.296;2022-08-04T11:47:49;28.60;48.80
55064;DHT22;40963;52.168;21.296;2022-08-04T11:50:38;28.60;49.70
55064;DHT22;40963;52.168;21.296;2022-08-04T11:53:07;28.60;50.30
55064;DHT22;40963;52.168;21.296;2022-08-04T11:55:34;28.60;50.60
55064;DHT22;40963;52.168;21.296;2022-08-04T11:58:01;28.60;50.20
55064;DHT22;40963;52.168;21.296;2022-08-04T12:00:28;28.70;50.20
55064;DHT22;40963;52.168;21.296;2022-08-04T12:03:14;28.70;50.00
55064;DHT22;40963;52.168;21.296;2022-08-04T12:06:12;28.90;49.80
55064;DHT22;40963;52.168;21.296;2022-08-04T12:11:42;29.10;49.30
55064;DHT22;40963;52.168;21.296;2022-08-04T12:14:21;29.20;48.90
55064;DHT22;40963;52.168;21.296;2022-08-04T12:16:58;29.30;48.40
55064;DHT22;40963;52.168;21.296;2022-08-04T12:21:58;29.20;47.90
55064;DHT22;40963;52.168;21.296;2022-08-04T12:27:02;29.10;48.80
55064;DHT22;40963;52.168;21.296;2022-08-04T12:29:32;29.00;48.70
55064;DHT22;40963;52.168;21.296;2022-08-04T12:40:39;29.10;47.50
55064;DHT22;40963;52.168;21.296;2022-08-04T12:43:14;29.20;47.50
55064;DHT22;40963;52.168;21.296;2022-08-04T12:45:50;29.20;47.60
55064;DHT22;40963;52.168;21.296;2022-08-04T12:48:17;29.30;47.80
55064;DHT22;40963;52.168;21.296;2022-08-04T12:50:53;29.30;47.70
55064;DHT22;40963;52.168;21.296;2022-08-04T12:53:33;29.20;47.80
55064;DHT22;40963;52.168;21.296;2022-08-04T12:56:02;29.10;48.90
55064;DHT22;40963;52.168;21.296;2022-08-04T12:58:40;29.00;49.20
55064;DHT22;40963;52.168;21.296;2022-08-04T13:01:10;28.90;49.60
55064;DHT22;40963;52.168;21.296;2022-08-04T13:03:58;28.90;50.00
55064;DHT22;40963;52.168;21.296;2022-08-04T13:06:29;28.90;49.70
55064;DHT22;40963;52.168;21.296;2022-08-04T13:09:03;29.00;49.50
55064;DHT22;40963;52.168;21.296;2022-08-04T13:11:34;29.20;50.00
55064;DHT22;40963;52.168;21.296;2022-08-04T13:14:01;29.20;48.80
55064;DHT22;40963;52.168;21.296;2022-08-04T13:16:29;29.30;48.70
55064;DHT22;40963;52.168;21.296;2022-08-04T13:18:55;29.40;48.80
55064;DHT22;40963;52.168;21.296;2022-08-04T13:21:24;29.40;48.20
55064;DHT22;40963;52.168;21.296;2022-08-04T13:23:53;29.40;47.60
55064;DHT22;40963;52.168;21.296;2022-08-04T13:26:20;29.50;47.70
55064;DHT22;40963;52.168;21.296;2022-08-04T13:28:48;29.50;47.60
55064;DHT22;40963;52.168;21.296;2022-08-04T13:31:19;29.50;47.80
55064;DHT22;40963;52.168;21.296;2022-08-04T13:33:48;29.30;47.60
55064;DHT22;40963;52.168;21.296;2022-08-04T13:36:16;29.20;48.00
55064;DHT22;40963;52.168;21.296;2022-08-04T13:38:52;29.10;48.10
55064;DHT22;40963;52.168;21.296;2022-08-04T13:41:18;29.10;47.70
55064;DHT22;40963;52.168;21.296;2022-08-04T13:43:49;29.10;47.40
55064;DHT22;40963;52.168;21.296;2022-08-04T13:46:23;29.10;46.90
55064;DHT22;40963;52.168;21.296;2022-08-04T13:48:49;29.00;46.80
55064;DHT22;40963;52.168;21.296;2022-08-04T13:51:21;28.90;47.30
55064;DHT22;40963;52.168;21.296;2022-08-04T13:53:59;28.90;47.30
55064;DHT22;40963;52.168;21.296;2022-08-04T13:56:41;28.90;47.30
55064;DHT22;40963;52.168;21.296;2022-08-04T13:59:10;28.90;47.40
55064;DHT22;40963;52.168;21.296;2022-08-04T14:01:41;28.90;46.30
55064;DHT22;40963;52.168;21.296;2022-08-04T14:04:21;28.90;46.10
55064;DHT22;40963;52.168;21.296;2022-08-04T14:06:51;29.00;46.00
55064;DHT22;40963;52.168;21.296;2022-08-04T14:09:20;29.00;45.80
55064;DHT22;40963;52.168;21.296;2022-08-04T14:11:52;29.10;45.50
55064;DHT22;40963;52.168;21.296;2022-08-04T14:14:30;29.10;45.40
55064;DHT22;40963;52.168;21.296;2022-08-04T14:17:07;29.20;44.80
55064;DHT22;40963;52.168;21.296;2022-08-04T14:27:39;29.30;44.20
55064;DHT22;40963;52.168;21.296;2022-08-04T14:30:07;29.20;44.00
55064;DHT22;40963;52.168;21.296;2022-08-04T14:32:32;29.10;43.80
55064;DHT22;40963;52.168;21.296;2022-08-04T14:35:10;29.00;43.80
55064;DHT22;40963;52.168;21.296;2022-08-04T14:37:35;29.00;43.60
55064;DHT22;40963;52.168;21.296;2022-08-04T14:40:02;29.00;43.40
55064;DHT22;40963;52.168;21.296;2022-08-04T14:42:45;28.90;43.40
55064;DHT22;40963;52.168;21.296;2022-08-04T14:45:11;28.90;43.80
55064;DHT22;40963;52.168;21.296;2022-08-04T14:47:44;28.90;43.60
55064;DHT22;40963;52.168;21.296;2022-08-04T14:50:10;29.00;43.70
55064;DHT22;40963;52.168;21.296;2022-08-04T14:52:37;29.00;44.00
55064;DHT22;40963;52.168;21.296;2022-08-04T14:55:23;29.10;44.20
55064;DHT22;40963;52.168;21.296;2022-08-04T14:57:50;29.10;44.20
55064;DHT22;40963;52.168;21.296;2022-08-04T15:00:28;29.10;44.10
55064;DHT22;40963;52.168;21.296;2022-08-04T15:03:00;29.10;43.80
55064;DHT22;40963;52.168;21.296;2022-08-04T15:05:27;29.00;43.70
55064;DHT22;40963;52.168;21.296;2022-08-04T15:07:54;28.90;44.00
55064;DHT22;40963;52.168;21.296;2022-08-04T15:10:20;28.90;44.40
55064;DHT22;40963;52.168;21.296;2022-08-04T15:12:46;28.80;44.30
55064;DHT22;40963;52.168;21.296;2022-08-04T15:15:13;28.80;44.30
55064;DHT22;40963;52.168;21.296;2022-08-04T15:17:39;28.90;44.10
55064;DHT22;40963;52.168;21.296;2022-08-04T15:20:05;28.90;43.90
55064;DHT22;40963;52.168;21.296;2022-08-04T15:22:32;28.80;44.00
55064;DHT22;40963;52.168;21.296;2022-08-04T15:24:58;28.90;44.00
55064;DHT22;40963;52.168;21.296;2022-08-04T15:27:32;28.80;43.90
55064;DHT22;40963;52.168;21.296;2022-08-04T15:30:02;28.80;44.10
55064;DHT22;40963;52.168;21.296;2022-08-04T15:32:34;28.70;44.20
55064;DHT22;40963;52.168;21.296;2022-08-04T15:35:07;28.70;44.30
55064;DHT22;40963;52.168;21.296;2022-08-04T15:45:54;28.60;44.00
55064;DHT22;40963;52.168;21.296;2022-08-04T15:48:21;28.60;44.20
55064;DHT22;40963;52.168;21.296;2022-08-04T15:51:11;28.60;44.40
55064;DHT22;40963;52.168;21.296;2022-08-04T15:58:54;28.50;45.60
55064;DHT22;40963;52.168;21.296;2022-08-04T16:01:20;28.50;45.60
55064;DHT22;40963;52.168;21.296;2022-08-04T16:03:48;28.40;45.60
55064;DHT22;40963;52.168;21.296;2022-08-04T16:16:28;28.30;45.60
55064;DHT22;40963;52.168;21.296;2022-08-04T16:18:54;28.30;45.80
55064;DHT22;40963;52.168;21.296;2022-08-04T16:21:28;28.20;45.90
55064;DHT22;40963;52.168;21.296;2022-08-04T16:23:58;28.20;46.30
55064;DHT22;40963;52.168;21.296;2022-08-04T16:32:22;28.20;47.20
55064;DHT22;40963;52.168;21.296;2022-08-04T16:34:57;28.10;47.70
55064;DHT22;40963;52.168;21.296;2022-08-04T16:37:37;28.10;47.90
55064;DHT22;40963;52.168;21.296;2022-08-04T16:42:57;28.00;48.90
55064;DHT22;40963;52.168;21.296;2022-08-04T16:45:47;27.90;48.80
55064;DHT22;40963;52.168;21.296;2022-08-04T16:48:15;27.80;48.70
55064;DHT22;40963;52.168;21.296;2022-08-04T16:51:11;27.80;48.70
55064;DHT22;40963;52.168;21.296;2022-08-04T16:53:43;27.70;48.50
55064;DHT22;40963;52.168;21.296;2022-08-04T16:56:11;27.70;48.50
55064;DHT22;40963;52.168;21.296;2022-08-04T16:58:39;27.60;48.40
55064;DHT22;40963;52.168;21.296;2022-08-04T17:01:10;27.60;48.50
55064;DHT22;40963;52.168;21.296;2022-08-04T17:03:37;27.60;48.80
55064;DHT22;40963;52.168;21.296;2022-08-04T17:06:11;27.50;49.60
55064;DHT22;40963;52.168;21.296;2022-08-04T17:08:39;27.40;49.40
55064;DHT22;40963;52.168;21.296;2022-08-04T17:11:06;27.40;49.80
55064;DHT22;40963;52.168;21.296;2022-08-04T17:13:39;27.30;50.00
55064;DHT22;40963;52.168;21.296;2022-08-04T17:16:10;27.20;50.40
55064;DHT22;40963;52.168;21.296;2022-08-04T17:18:41;27.20;51.40
55064;DHT22;40963;52.168;21.296;2022-08-04T17:21:16;27.10;51.80
55064;DHT22;40963;52.168;21.296;2022-08-04T17:23:49;26.90;52.10
55064;DHT22;40963;52.168;21.296;2022-08-04T17:26:18;26.80;52.40
55064;DHT22;40963;52.168;21.296;2022-08-04T17:28:48;26.70;52.90
55064;DHT22;40963;52.168;21.296;2022-08-04T17:31:14;26.60;53.20
55064;DHT22;40963;52.168;21.296;2022-08-04T17:33:45;26.50;53.70
55064;DHT22;40963;52.168;21.296;2022-08-04T17:36:11;26.40;54.00
55064;DHT22;40963;52.168;21.296;2022-08-04T17:38:43;26.30;54.40
55064;DHT22;40963;52.168;21.296;2022-08-04T17:41:12;26.10;54.80
55064;DHT22;40963;52.168;21.296;2022-08-04T17:43:50;26.00;55.20
55064;DHT22;40963;52.168;21.296;2022-08-04T17:49:01;25.70;55.80
55064;DHT22;40963;52.168;21.296;2022-08-04T17:54:12;25.50;57.80
55064;DHT22;40963;52.168;21.296;2022-08-04T17:56:42;25.40;58.60
55064;DHT22;40963;52.168;21.296;2022-08-04T17:59:19;25.30;59.10
55064;DHT22;40963;52.168;21.296;2022-08-04T18:01:51;25.10;59.40
55064;DHT22;40963;52.168;21.296;2022-08-04T18:07:21;24.80;59.50
55064;DHT22;40963;52.168;21.296;2022-08-04T18:12:30;24.50;60.60
55064;DHT22;40963;52.168;21.296;2022-08-04T18:15:25;24.40;61.50
55064;DHT22;40963;52.168;21.296;2022-08-04T18:17:54;24.30;62.30
55064;DHT22;40963;52.168;21.296;2022-08-04T18:20:23;24.10;62.50
55064;DHT22;40963;52.168;21.296;2022-08-04T18:22:48;24.00;62.90
55064;DHT22;40963;52.168;21.296;2022-08-04T18:25:17;23.90;63.70
55064;DHT22;40963;52.168;21.296;2022-08-04T18:27:55;23.80;64.30
55064;DHT22;40963;52.168;21.296;2022-08-04T18:30:23;23.60;64.90
55064;DHT22;40963;52.168;21.296;2022-08-04T18:32:49;23.50;65.50
55064;DHT22;40963;52.168;21.296;2022-08-04T18:35:15;23.40;65.80
55064;DHT22;40963;52.168;21.296;2022-08-04T18:37:41;23.30;66.10
55064;DHT22;40963;52.168;21.296;2022-08-04T18:40:09;23.20;66.60
55064;DHT22;40963;52.168;21.296;2022-08-04T18:42:35;23.00;66.90
55064;DHT22;40963;52.168;21.296;2022-08-04T18:45:02;22.90;67.50
55064;DHT22;40963;52.168;21.296;2022-08-04T18:47:28;22.70;67.90
55064;DHT22;40963;52.168;21.296;2022-08-04T18:49:54;22.60;68.70
55064;DHT22;40963;52.168;21.296;2022-08-04T18:52:20;22.60;69.50
55064;DHT22;40963;52.168;21.296;2022-08-04T18:54:46;22.50;70.20
55064;DHT22;40963;52.168;21.296;2022-08-04T18:57:20;22.40;70.70
55064;DHT22;40963;52.168;21.296;2022-08-04T18:59:46;22.30;71.40
55064;DHT22;40963;52.168;21.296;2022-08-04T19:02:12;22.20;72.20
55064;DHT22;40963;52.168;21.296;2022-08-04T19:04:39;22.10;73.10
55064;DHT22;40963;52.168;21.296;2022-08-04T19:07:06;22.00;74.10
55064;DHT22;40963;52.168;21.296;2022-08-04T19:09:31;21.90;75.20
55064;DHT22;40963;52.168;21.296;2022-08-04T19:11:57;21.80;76.20
55064;DHT22;40963;52.168;21.296;2022-08-04T19:14:23;21.80;77.40
55064;DHT22;40963;52.168;21.296;2022-08-04T19:16:49;21.60;78.10
55064;DHT22;40963;52.168;21.296;2022-08-04T19:19:15;21.50;79.20
55064;DHT22;40963;52.168;21.296;2022-08-04T19:21:42;21.50;80.30
55064;DHT22;40963;52.168;21.296;2022-08-04T19:24:08;21.40;81.10
55064;DHT22;40963;52.168;21.296;2022-08-04T19:26:35;21.30;82.30
55064;DHT22;40963;52.168;21.296;2022-08-04T19:29:01;21.20;83.60
55064;DHT22;40963;52.168;21.296;2022-08-04T19:31:27;21.10;84.60
55064;DHT22;40963;52.168;21.296;2022-08-04T19:33:53;21.00;85.80
55064;DHT22;40963;52.168;21.296;2022-08-04T19:36:19;20.90;87.10
55064;DHT22;40963;52.168;21.296;2022-08-04T19:38:45;20.80;88.10
55064;DHT22;40963;52.168;21.296;2022-08-04T19:41:11;20.80;89.30
55064;DHT22;40963;52.168;21.296;2022-08-04T19:43:37;20.70;90.40
55064;DHT22;40963;52.168;21.296;2022-08-04T19:46:04;20.60;90.90
55064;DHT22;40963;52.168;21.296;2022-08-04T19:48:30;20.60;91.30